Observations for GROTTAGLIE CIV AFB, Italy (LIBG)

LIBG 201850Z 36006KT CAVOK 10/06 Q1023  
LIBG 201750Z 36003KT 290V040 CAVOK 10/06 Q1023  
LIBG 201650Z 01011KT CAVOK 11/06 Q1022  
LIBG 201550Z 02010KT CAVOK 13/06 Q1022  
LIBG 201450Z 02011KT CAVOK 14/06 Q1022  
LIBG 201350Z 02009KT 350V050 9999 FEW040 15/07 Q1021
LIBG 201250Z 02007KT 330V060 9999 FEW035 16/05 Q1021
LIBG 201150Z 03005KT 350V100 9999 FEW035 16/06 Q1022
LIBG 201050Z 08003KT 020V220 9999 FEW035 16/06 Q1023
LIBG 200950Z 35003KT 9999 FEW030 14/07 Q1023
LIBG 200850Z 36007KT CAVOK 13/08 Q1023  
LIBG 200750Z 00000KT CAVOK 09/09 Q1022  
LIBG 200700Z VRB02KT 7000 NSC 06/06 Q1022